Time;durP1;ratioP1;P1;durP2;ratioP2;P2;SDS_P1;SDS_P2;PMS_P1;PMS_P2;Temp;Humidity;BMP_temperature;BMP_pressure;BME280_temperature;BME280_humidity;BME280_pressure;Samples;Min_cycle;Max_cycle;Signal;HPM_P1;HPM_P2
2024/04/12 00:02:05;;;;;;;12.67;5.57;;;12.60;99.90;;;;;;5415568;26;20263;-78
2024/04/12 00:04:53;;;;;;;9.37;5.10;;;12.60;99.90;;;;;;5416681;26;20225;-78
2024/04/12 00:08:05;;;;;;;7.83;4.73;;;12.70;99.90;;;;;;5416744;26;20704;-78
2024/04/12 00:11:20;;;;;;;9.87;4.50;;;12.70;99.90;;;;;;5417258;26;20268;-78
2024/04/12 00:14:50;;;;;;;10.23;4.87;;;12.60;99.90;;;;;;5418154;26;20259;-76
2024/04/12 00:24:59;;;;;;;13.90;5.13;;;12.60;99.90;;;;;;5416962;26;20263;-77
2024/04/12 00:28:10;;;;;;;10.30;5.30;;;12.60;99.90;;;;;;5439953;26;20217;-77
2024/04/12 00:31:42;;;;;;;14.87;6.23;;;12.50;99.90;;;;;;5441181;26;20743;-77
2024/04/12 00:41:42;;;;;;;12.87;6.37;;;12.50;99.90;;;;;;5415431;26;20240;-77
2024/04/12 00:45:12;;;;;;;11.97;6.73;;;12.40;99.90;;;;;;5417372;26;20856;-77
2024/04/12 00:48:25;;;;;;;12.47;6.47;;;12.40;99.90;;;;;;5416138;26;20225;-78
2024/04/12 00:51:38;;;;;;;11.57;6.03;;;12.40;99.90;;;;;;5417128;26;20259;-77
2024/04/12 00:54:29;;;;;;;12.50;6.20;;;12.30;99.90;;;;;;5419476;26;20288;-77
2024/04/12 00:57:41;;;;;;;11.50;5.70;;;12.30;99.90;;;;;;5417290;26;20263;-77
2024/04/12 01:00:48;;;;;;;10.63;5.23;;;12.20;99.90;;;;;;5415124;26;20259;-77
2024/04/12 01:04:06;;;;;;;9.67;4.57;;;12.20;99.90;;;;;;5417024;26;20276;-77
2024/04/12 01:07:06;;;;;;;10.83;4.57;;;12.20;99.90;;;;;;5416188;26;20320;-77
2024/04/12 01:10:24;;;;;;;11.07;4.77;;;12.20;99.90;;;;;;5418091;26;20212;-77
2024/04/12 01:13:23;;;;;;;9.83;4.53;;;12.20;99.90;;;;;;5414231;26;20209;-77
2024/04/12 01:16:34;;;;;;;9.70;4.37;;;12.30;99.90;;;;;;5414522;26;20263;-77
2024/04/12 01:19:42;;;;;;;7.23;4.20;;;12.30;99.90;;;;;;5414484;26;20705;-78
2024/04/12 01:22:58;;;;;;;9.93;4.10;;;12.40;99.90;;;;;;5416478;26;20209;-78
2024/04/12 01:26:32;;;;;;;9.47;4.10;;;12.30;99.90;;;;;;5416977;26;20622;-77
2024/04/12 01:29:56;;;;;;;9.60;4.63;;;12.30;99.90;;;;;;5415352;26;20212;-77
2024/04/12 01:32:53;;;;;;;8.67;4.40;;;12.40;99.90;;;;;;5417903;26;20213;-77
2024/04/12 01:36:05;;;;;;;11.53;4.60;;;12.50;99.90;;;;;;5414090;26;20282;-77
2024/04/12 01:39:15;;;;;;;8.07;4.30;;;12.50;99.90;;;;;;5416703;26;20208;-78
2024/04/12 01:42:43;;;;;;;9.57;4.37;;;12.60;99.90;;;;;;5415296;26;20232;-78
2024/04/12 01:45:54;;;;;;;8.83;4.37;;;12.70;99.90;;;;;;5415817;26;20211;-76
2024/04/12 01:48:55;;;;;;;9.73;4.20;;;12.70;99.90;;;;;;5414243;26;20305;-77
2024/04/12 01:51:47;;;;;;;11.23;4.13;;;12.80;99.90;;;;;;5414144;26;20299;-77
2024/04/12 01:54:35;;;;;;;9.40;4.17;;;12.80;99.90;;;;;;5415090;26;20259;-77
2024/04/12 01:57:28;;;;;;;9.13;4.43;;;12.90;99.90;;;;;;5415668;26;20217;-77
2024/04/12 02:00:37;;;;;;;8.47;3.90;;;13.00;99.90;;;;;;5419625;26;20213;-78
2024/04/12 02:03:29;;;;;;;9.20;4.23;;;13.00;99.90;;;;;;5415444;26;20708;-77
2024/04/12 02:06:42;;;;;;;6.80;4.20;;;13.00;99.90;;;;;;5419666;26;20724;-77
2024/04/12 02:09:50;;;;;;;6.43;4.20;;;13.00;99.90;;;;;;5418667;26;20276;-77
2024/04/12 02:12:42;;;;;;;8.20;4.07;;;13.00;99.90;;;;;;5414973;26;20212;-76
2024/04/12 02:15:49;;;;;;;9.60;4.20;;;13.10;99.90;;;;;;5416219;26;20209;-77
2024/04/12 02:19:11;;;;;;;7.77;3.97;;;13.10;99.90;;;;;;5416060;26;20591;-77
2024/04/12 02:22:10;;;;;;;7.53;3.63;;;13.10;99.90;;;;;;5418177;26;20722;-77
2024/04/12 02:25:19;;;;;;;9.37;4.13;;;13.10;99.90;;;;;;5413128;26;20272;-77
2024/04/12 02:28:29;;;;;;;9.50;4.07;;;13.20;99.90;;;;;;5418437;26;20231;-76
2024/04/12 02:31:55;;;;;;;6.50;4.10;;;13.10;99.90;;;;;;5414693;26;20216;-76
2024/04/12 02:34:49;;;;;;;8.40;4.17;;;13.20;99.90;;;;;;5418090;26;20270;-77
2024/04/12 02:37:47;;;;;;;10.30;4.40;;;13.20;99.90;;;;;;5417961;26;20259;-77
2024/04/12 02:40:38;;;;;;;6.77;4.03;;;13.20;99.90;;;;;;5419107;26;20689;-76
2024/04/12 02:43:29;;;;;;;8.77;4.47;;;13.20;99.90;;;;;;5414535;26;20321;-76
2024/04/12 02:46:16;;;;;;;9.87;4.53;;;13.10;99.90;;;;;;5416664;26;20225;-76
2024/04/12 02:49:09;;;;;;;10.93;4.53;;;13.10;99.90;;;;;;5415786;26;20228;-76
2024/04/12 02:51:59;;;;;;;8.00;4.47;;;13.20;99.90;;;;;;5414695;26;20313;-77
2024/04/12 02:54:53;;;;;;;6.53;4.10;;;13.00;99.90;;;;;;5415745;26;20752;-77
2024/04/12 02:58:04;;;;;;;10.77;4.90;;;12.90;99.90;;;;;;5418397;26;20272;-76
2024/04/12 03:00:52;;;;;;;8.03;4.37;;;12.70;99.90;;;;;;5416653;26;20216;-77
2024/04/12 03:04:01;;;;;;;11.43;4.93;;;12.60;99.90;;;;;;5414663;26;20216;-77
2024/04/12 03:06:48;;;;;;;10.70;4.83;;;12.50;99.90;;;;;;5415463;26;20216;-78
2024/04/12 03:09:45;;;;;;;9.87;5.20;;;12.40;99.90;;;;;;5417431;26;20325;-77
2024/04/12 03:13:00;;;;;;;7.77;4.23;;;12.30;99.90;;;;;;5415981;26;20220;-77
2024/04/12 03:15:58;;;;;;;8.63;4.60;;;12.40;99.90;;;;;;5414004;26;20613;-77
2024/04/12 03:22:30;;;;;;;10.57;4.70;;;12.30;99.90;;;;;;5415421;26;20212;-78
2024/04/12 03:25:17;;;;;;;9.43;4.70;;;12.30;99.90;;;;;;5415322;26;20212;-77
2024/04/12 03:28:20;;;;;;;11.00;5.33;;;12.10;99.90;;;;;;5416255;26;20208;-77
2024/04/12 03:31:14;;;;;;;7.67;4.70;;;12.10;99.90;;;;;;5413890;26;20629;-77
2024/04/12 03:34:24;;;;;;;9.57;4.77;;;12.00;99.90;;;;;;5413765;26;20264;-77
2024/04/12 03:37:38;;;;;;;10.10;4.70;;;12.00;99.90;;;;;;5414874;26;20593;-77
2024/04/12 03:40:25;;;;;;;9.73;4.40;;;12.00;99.90;;;;;;5415357;26;20247;-77
2024/04/12 03:43:13;;;;;;;9.47;4.23;;;12.10;99.90;;;;;;5415119;26;20681;-77
2024/04/12 03:46:00;;;;;;;9.20;4.67;;;12.00;99.90;;;;;;5415785;26;20212;-77
2024/04/12 03:48:47;;;;;;;10.20;4.63;;;12.00;99.90;;;;;;5414528;26;20225;-77
2024/04/12 03:52:19;;;;;;;10.43;4.60;;;12.00;99.90;;;;;;5417025;26;20635;-76
2024/04/12 03:59:00;;;;;;;10.10;4.80;;;11.90;99.90;;;;;;5414517;26;20263;-76
2024/04/12 04:02:25;;;;;;;9.97;4.87;;;11.80;99.90;;;;;;5417113;26;20313;-76
2024/04/12 04:05:34;;;;;;;10.70;4.20;;;11.80;99.90;;;;;;5413451;26;20255;-76
2024/04/12 04:08:22;;;;;;;9.23;4.63;;;11.70;99.90;;;;;;5416476;26;20208;-76
2024/04/12 04:11:15;;;;;;;10.07;5.00;;;11.70;99.90;;;;;;5413695;26;20356;-76
2024/04/12 04:14:08;;;;;;;10.77;5.30;;;11.60;99.90;;;;;;5414338;26;20653;-76
2024/04/12 04:17:13;;;;;;;10.53;5.30;;;11.60;99.90;;;;;;5414646;26;20346;-76
2024/04/12 04:20:41;;;;;;;10.57;4.93;;;11.50;99.90;;;;;;5414293;26;20289;-76
2024/04/12 04:23:29;;;;;;;10.10;5.10;;;11.50;99.90;;;;;;5414245;26;20258;-77
2024/04/12 04:26:26;;;;;;;13.40;5.33;;;11.60;99.90;;;;;;5413198;26;20324;-77
2024/04/12 04:29:17;;;;;;;12.87;5.33;;;11.50;99.90;;;;;;5414285;26;20220;-76
2024/04/12 04:32:07;;;;;;;13.07;5.57;;;11.50;99.90;;;;;;5415435;26;20212;-78
2024/04/12 04:35:26;;;;;;;11.20;5.10;;;11.60;99.90;;;;;;5411745;26;20221;-75
2024/04/12 04:38:16;;;;;;;11.67;5.47;;;11.70;99.90;;;;;;5413791;26;20712;-75
2024/04/12 04:41:27;;;;;;;12.83;5.23;;;11.70;99.90;;;;;;5412846;26;20626;-75
2024/04/12 04:44:19;;;;;;;12.47;5.73;;;11.70;99.90;;;;;;5411366;26;20272;-75
2024/04/12 04:47:10;;;;;;;12.47;5.83;;;11.80;99.90;;;;;;5414942;26;20267;-75
2024/04/12 04:50:20;;;;;;;12.83;5.83;;;11.80;99.90;;;;;;5419671;26;20810;-75
2024/04/12 04:53:44;;;;;;;10.87;4.90;;;11.80;99.90;;;;;;5420037;26;20931;-75
2024/04/12 04:56:34;;;;;;;10.90;5.00;;;11.90;99.90;;;;;;5417937;26;20213;-75
2024/04/12 04:59:32;;;;;;;11.93;5.60;;;11.90;99.90;;;;;;5418056;26;20263;-75
2024/04/12 05:02:35;;;;;;;14.03;6.07;;;12.00;99.90;;;;;;5417105;26;20394;-75
2024/04/12 05:05:51;;;;;;;9.90;5.07;;;12.00;99.90;;;;;;5415912;26;20791;-75
2024/04/12 05:08:39;;;;;;;8.93;5.00;;;12.10;99.90;;;;;;5416293;26;20598;-74
2024/04/12 05:11:33;;;;;;;11.30;5.30;;;12.10;99.90;;;;;;5420105;26;20260;-75
2024/04/12 05:17:44;;;;;;;14.50;5.33;;;12.30;99.90;;;;;;5309074;27;20593;-75
2024/04/12 05:20:50;;;;;;;17.13;6.17;;;12.30;99.90;;;;;;5309299;27;20243;-75
2024/04/12 05:23:52;;;;;;;9.93;4.87;;;12.30;99.90;;;;;;5309043;27;20706;-75
2024/04/12 05:27:01;;;;;;;8.33;4.90;;;12.40;99.90;;;;;;5309008;27;20220;-75
2024/04/12 05:29:49;;;;;;;12.60;5.27;;;12.40;99.90;;;;;;5308845;27;20607;-75
2024/04/12 05:32:40;;;;;;;12.70;5.20;;;12.50;99.90;;;;;;5309819;27;20325;-75
2024/04/12 05:36:09;;;;;;;11.60;5.43;;;12.60;99.90;;;;;;5307880;27;20281;-75
2024/04/12 05:39:11;;;;;;;17.37;5.63;;;12.60;99.90;;;;;;5309751;27;20262;-75
2024/04/12 05:42:11;;;;;;;13.67;5.60;;;12.70;99.90;;;;;;5301680;27;20310;-75
2024/04/12 05:45:04;;;;;;;11.03;5.10;;;12.70;99.90;;;;;;5309603;27;20700;-75
2024/04/12 05:51:12;;;;;;;12.93;5.70;;;12.80;99.90;;;;;;5307653;27;20585;-75
2024/04/12 05:54:17;;;;;;;11.67;5.20;;;12.90;99.90;;;;;;5344080;26;20784;-75
2024/04/12 05:57:14;;;;;;;17.40;5.50;;;13.00;99.90;;;;;;5416412;26;20208;-75
2024/04/12 06:00:23;;;;;;;11.80;5.70;;;13.00;99.90;;;;;;5414866;26;20212;-75
2024/04/12 06:03:48;;;;;;;11.53;5.10;;;13.10;99.90;;;;;;5414287;26;20215;-76
2024/04/12 06:07:07;;;;;;;9.33;5.20;;;13.20;99.90;;;;;;5416278;26;20216;-76
2024/04/12 06:09:58;;;;;;;11.77;5.47;;;13.40;99.90;;;;;;5416421;26;20264;-76
2024/04/12 06:13:06;;;;;;;10.00;5.23;;;13.50;99.90;;;;;;5417369;26;20781;-76
2024/04/12 06:16:31;;;;;;;11.63;5.13;;;13.50;99.90;;;;;;5414968;26;20267;-75
2024/04/12 06:19:19;;;;;;;10.37;4.83;;;13.70;99.90;;;;;;5419060;26;20337;-75
2024/04/12 06:22:15;;;;;;;11.77;5.50;;;13.60;99.90;;;;;;5414018;26;20290;-76
2024/04/12 06:25:25;;;;;;;9.27;4.60;;;13.70;99.90;;;;;;5416142;26;20226;-75
2024/04/12 06:32:06;;;;;;;13.27;5.50;;;13.70;99.90;;;;;;5416053;26;20259;-76
2024/04/12 06:35:20;;;;;;;17.33;5.53;;;14.00;99.90;;;;;;5413609;26;20237;-76
2024/04/12 06:38:21;;;;;;;10.60;5.10;;;14.10;99.90;;;;;;5413792;26;20216;-75
2024/04/12 06:41:50;;;;;;;10.73;4.77;;;14.20;99.90;;;;;;5415394;26;20577;-75
2024/04/12 06:45:01;;;;;;;11.13;4.97;;;14.40;99.90;;;;;;5418268;26;20312;-76
2024/04/12 06:48:26;;;;;;;12.10;4.87;;;14.40;99.90;;;;;;5413594;26;20228;-76
2024/04/12 06:55:16;;;;;;;8.53;4.70;;;14.40;99.90;;;;;;5415801;26;20216;-75
2024/04/12 07:02:07;;;;;;;9.10;4.23;;;14.90;99.90;;;;;;5415622;26;20304;-76
2024/04/12 07:05:00;;;;;;;9.07;4.43;;;15.20;99.90;;;;;;5414621;26;20267;-75
2024/04/12 07:07:48;;;;;;;7.90;3.77;;;15.30;99.90;;;;;;5415867;26;20208;-76
2024/04/12 07:14:46;;;;;;;7.87;3.77;;;15.80;99.90;;;;;;5415549;26;20316;-76
2024/04/12 07:18:02;;;;;;;9.63;3.70;;;16.00;99.90;;;;;;5416216;26;20320;-76
2024/04/12 07:24:35;;;;;;;5.97;3.70;;;16.50;99.90;;;;;;5417819;26;20264;-76
2024/04/12 07:27:27;;;;;;;8.77;3.33;;;16.60;99.90;;;;;;5415238;26;20321;-75
2024/04/12 07:30:37;;;;;;;9.20;3.73;;;16.40;99.90;;;;;;5415354;26;20215;-75
2024/04/12 07:33:36;;;;;;;9.13;3.97;;;16.50;99.90;;;;;;5417951;26;20558;-76
2024/04/12 07:39:57;;;;;;;5.20;3.10;;;16.60;99.90;;;;;;5415009;26;20259;-76
2024/04/12 07:43:18;;;;;;;5.60;3.13;;;16.70;99.90;;;;;;5414817;26;20240;-75
2024/04/12 07:46:33;;;;;;;6.93;3.17;;;16.60;99.90;;;;;;5414353;26;20618;-76
2024/04/12 07:49:24;;;;;;;6.33;2.37;;;16.90;99.90;;;;;;5413272;26;20531;-76
2024/04/12 07:52:17;;;;;;;7.17;2.80;;;17.10;99.90;;;;;;5413194;26;20262;-76
2024/04/12 07:59:13;;;;;;;7.60;2.87;;;16.70;99.90;;;;;;5413436;26;20216;-76
2024/04/12 08:02:05;;;;;;;5.83;3.10;;;16.70;99.90;;;;;;5412381;26;20217;-76
2024/04/12 08:05:25;;;;;;;7.63;3.73;;;16.90;99.90;;;;;;5412919;26;20723;-76
2024/04/12 08:08:15;;;;;;;8.30;3.60;;;16.90;99.90;;;;;;5413281;26;20208;-76
2024/04/12 08:11:41;;;;;;;10.63;3.97;;;16.80;99.90;;;;;;5413685;26;20623;-76
2024/04/12 08:14:33;;;;;;;6.70;3.33;;;16.50;99.90;;;;;;5413452;26;20219;-77
2024/04/12 08:17:39;;;;;;;6.43;3.03;;;16.00;99.90;;;;;;5413295;26;20274;-76
2024/04/12 08:20:39;;;;;;;7.63;3.47;;;16.10;99.90;;;;;;5412768;26;20719;-76
2024/04/12 08:23:29;;;;;;;4.13;2.70;;;16.20;99.90;;;;;;5415792;26;20664;-76
2024/04/12 08:29:58;;;;;;;6.50;2.73;;;16.50;99.90;;;;;;5420007;26;20302;-76
2024/04/12 08:33:23;;;;;;;7.10;3.43;;;16.60;99.90;;;;;;5417567;26;20284;-76
2024/04/12 08:36:49;;;;;;;4.80;3.30;;;16.70;99.90;;;;;;5418347;26;20259;-76
2024/04/12 08:39:44;;;;;;;5.80;3.40;;;16.50;99.90;;;;;;5417079;26;20684;-76
2024/04/12 08:42:32;;;;;;;6.97;3.20;;;16.50;99.90;;;;;;5415124;26;20236;-76
2024/04/12 08:45:30;;;;;;;10.00;3.00;;;16.40;99.90;;;;;;5416059;26;20249;-76
2024/04/12 08:48:41;;;;;;;6.77;3.00;;;16.50;99.90;;;;;;5418291;26;20321;-76
2024/04/12 08:55:04;;;;;;;6.47;3.37;;;16.10;99.90;;;;;;5417452;26;20312;-75
2024/04/12 08:58:36;;;;;;;6.77;3.03;;;16.00;99.90;;;;;;5415774;26;20266;-75
2024/04/12 09:01:25;;;;;;;4.70;3.30;;;15.90;99.90;;;;;;5415997;26;20329;-76
2024/04/12 09:04:54;;;;;;;5.40;2.67;;;15.90;99.90;;;;;;5417018;26;20228;-75
2024/04/12 09:08:03;;;;;;;3.63;2.80;;;15.90;99.90;;;;;;5417490;26;20267;-76
2024/04/12 09:11:05;;;;;;;3.40;2.20;;;15.70;99.90;;;;;;5416733;26;20216;-75
2024/04/12 09:14:09;;;;;;;4.47;2.10;;;15.80;99.90;;;;;;5415600;26;20254;-76
2024/04/12 09:17:43;;;;;;;3.77;2.50;;;15.70;99.90;;;;;;5415432;26;20268;-76
2024/04/12 09:20:41;;;;;;;5.00;2.70;;;15.60;99.90;;;;;;5416537;26;20227;-75
2024/04/12 09:23:56;;;;;;;6.53;3.40;;;15.90;99.90;;;;;;5416785;26;20216;-75
2024/04/12 09:33:21;;;;;;;8.80;4.20;;;16.20;99.90;;;;;;5416599;26;20622;-76
2024/04/12 09:36:14;;;;;;;8.80;4.37;;;16.30;99.90;;;;;;5415871;26;20212;-76
2024/04/12 09:39:06;;;;;;;8.50;4.63;;;16.40;99.90;;;;;;5416818;26;20224;-76
2024/04/12 09:41:58;;;;;;;8.13;5.10;;;16.30;99.90;;;;;;5415594;26;20220;-76
2024/04/12 09:44:49;;;;;;;11.93;5.37;;;16.50;99.90;;;;;;5416092;26;20216;-76
2024/04/12 10:37:58;;;;;;;5.67;2.70;;;16.60;99.90;;;;;;5415929;26;20696;-76
2024/04/12 10:40:48;;;;;;;6.57;2.50;;;16.60;99.90;;;;;;5415039;26;20213;-75
2024/04/12 10:43:36;;;;;;;6.07;2.50;;;16.80;99.90;;;;;;5415441;26;20236;-76
2024/04/12 10:46:23;;;;;;;4.53;2.30;;;16.90;99.90;;;;;;5413778;26;20282;-76
2024/04/12 10:49:12;;;;;;;4.07;2.53;;;17.00;99.90;;;;;;5416679;26;20275;-76
2024/04/12 10:52:00;;;;;;;3.90;2.60;;;17.20;99.90;;;;;;5415434;26;20740;-76
2024/04/12 10:54:48;;;;;;;3.50;2.30;;;17.30;99.90;;;;;;5414332;26;20226;-76
2024/04/12 10:57:40;;;;;;;4.07;2.47;;;17.60;99.90;;;;;;5414420;26;20216;-75
2024/04/12 11:00:28;;;;;;;5.07;2.40;;;17.70;99.90;;;;;;5414295;26;20604;-76
2024/04/12 11:03:24;;;;;;;5.90;2.40;;;17.60;99.90;;;;;;5414378;26;20216;-76
2024/04/12 11:06:18;;;;;;;4.27;2.37;;;17.60;99.90;;;;;;5413481;26;21057;-76
2024/04/12 11:09:06;;;;;;;5.53;2.40;;;17.20;99.90;;;;;;5414852;26;20247;-76
2024/04/12 11:12:09;;;;;;;3.80;2.03;;;16.90;99.90;;;;;;5415381;26;20684;-76
2024/04/12 11:33:53;;;;;;;2.53;1.83;;;17.30;99.90;;;;;;5415098;26;20258;-75
2024/04/12 11:37:05;;;;;;;3.67;1.53;;;17.10;99.90;;;;;;5414208;26;20718;-76
2024/04/12 11:39:53;;;;;;;2.30;1.50;;;17.00;99.90;;;;;;5411773;26;20224;-76
2024/04/12 11:42:41;;;;;;;6.80;1.73;;;16.60;99.90;;;;;;5416991;26;20318;-75
2024/04/12 11:45:30;;;;;;;3.80;1.73;;;16.40;99.90;;;;;;5412686;26;20224;-75
2024/04/12 11:48:18;;;;;;;3.00;1.90;;;16.40;99.90;;;;;;5413456;26;20525;-76
2024/04/12 11:51:08;;;;;;;3.70;1.90;;;16.40;99.90;;;;;;5414858;26;20313;-76
2024/04/12 11:53:55;;;;;;;2.70;1.47;;;16.30;99.90;;;;;;5413261;26;20263;-76
2024/04/12 11:56:44;;;;;;;3.57;1.97;;;16.30;99.90;;;;;;5437980;26;20228;-76
2024/04/12 11:59:32;;;;;;;3.63;1.70;;;16.70;99.90;;;;;;5416852;26;20283;-76
2024/04/12 12:02:22;;;;;;;1.97;1.70;;;17.00;99.90;;;;;;5419467;26;20263;-75
2024/04/12 12:05:16;;;;;;;1.93;1.63;;;16.90;99.90;;;;;;5417140;26;20236;-76
2024/04/12 12:08:05;;;;;;;3.37;1.53;;;17.10;99.90;;;;;;5418155;26;20212;-76
2024/04/12 12:10:54;;;;;;;6.80;1.77;;;17.20;99.90;;;;;;5418684;26;20208;-76
2024/04/12 12:13:44;;;;;;;5.03;2.00;;;17.10;99.90;;;;;;5417963;26;20272;-76
2024/04/12 12:16:33;;;;;;;2.77;1.87;;;17.10;99.90;;;;;;5415678;26;20221;-76
2024/04/12 12:19:20;;;;;;;2.60;1.77;;;16.90;99.90;;;;;;5418041;26;20827;-76
2024/04/12 12:22:10;;;;;;;4.10;1.67;;;16.60;99.90;;;;;;5417840;26;20735;-76
2024/04/12 12:25:01;;;;;;;3.73;1.77;;;16.50;99.90;;;;;;5418772;26;20781;-75
2024/04/12 12:27:54;;;;;;;3.27;1.50;;;16.50;99.90;;;;;;5416698;26;20283;-76
2024/04/12 12:30:44;;;;;;;4.00;2.07;;;16.70;99.90;;;;;;5417784;26;20262;-76
2024/04/12 12:33:38;;;;;;;5.10;2.00;;;16.60;99.90;;;;;;5416452;26;20626;-77
2024/04/12 12:36:27;;;;;;;2.30;1.90;;;16.60;99.90;;;;;;5415026;26;20224;-77
2024/04/12 12:39:15;;;;;;;6.83;2.07;;;16.60;99.90;;;;;;5417410;26;20560;-76
2024/04/12 12:42:03;;;;;;;3.53;1.80;;;16.50;99.90;;;;;;5417341;26;20216;-76
2024/04/12 12:44:52;;;;;;;3.10;1.77;;;16.50;99.90;;;;;;5417129;26;20220;-75
2024/04/12 12:47:39;;;;;;;3.13;1.67;;;16.50;99.90;;;;;;5416111;26;20224;-76
2024/04/12 12:50:29;;;;;;;2.40;1.60;;;16.40;99.90;;;;;;5417553;26;20224;-76
2024/04/12 12:53:19;;;;;;;2.50;1.60;;;16.70;99.90;;;;;;5418378;26;20216;-76
2024/04/12 12:56:07;;;;;;;3.90;1.80;;;16.70;99.90;;;;;;5417544;26;20836;-76
2024/04/12 12:58:56;;;;;;;3.20;1.70;;;16.70;99.90;;;;;;5417275;26;20267;-76
2024/04/12 13:01:46;;;;;;;3.97;1.80;;;16.50;99.90;;;;;;5418200;26;20216;-76
2024/04/12 13:04:35;;;;;;;2.53;1.70;;;16.20;99.90;;;;;;5419127;26;20265;-76
2024/04/12 13:07:23;;;;;;;2.50;1.70;;;16.00;99.90;;;;;;5414758;26;20255;-76
2024/04/12 13:10:12;;;;;;;3.63;1.73;;;16.10;99.90;;;;;;5415547;26;20224;-76
2024/04/12 13:13:04;;;;;;;3.70;1.50;;;16.30;99.90;;;;;;5416636;26;20540;-76
2024/04/12 13:15:55;;;;;;;3.43;1.63;;;16.30;99.90;;;;;;5415600;26;20259;-76
2024/04/12 13:18:45;;;;;;;3.90;2.23;;;16.50;99.90;;;;;;5415471;26;20745;-76
2024/04/12 13:21:33;;;;;;;3.70;1.40;;;16.40;99.90;;;;;;5417280;26;20624;-76
2024/04/12 13:24:24;;;;;;;2.00;1.20;;;16.20;99.90;;;;;;5416993;26;20224;-76
2024/04/12 13:27:14;;;;;;;4.60;1.37;;;16.20;99.90;;;;;;5414112;26;20261;-76
2024/04/12 13:30:09;;;;;;;2.70;1.10;;;16.40;99.90;;;;;;5440167;26;20209;-76
2024/04/12 13:32:58;;;;;;;2.30;1.40;;;16.50;99.90;;;;;;5416565;26;20288;-76
2024/04/12 13:35:46;;;;;;;1.77;1.17;;;16.40;99.90;;;;;;5416440;26;20277;-76
2024/04/12 13:38:34;;;;;;;1.90;1.30;;;16.40;99.90;;;;;;5415837;26;20220;-75
2024/04/12 13:41:21;;;;;;;3.67;1.30;;;16.30;99.90;;;;;;5416390;26;20213;-76
2024/04/12 13:44:09;;;;;;;3.17;1.20;;;16.40;99.90;;;;;;5413965;26;20271;-76
2024/04/12 13:53:09;;;;;;;1.47;1.00;;;16.60;99.90;;;;;;5416245;26;20224;-76
2024/04/12 13:56:19;;;;;;;2.83;1.27;;;17.00;99.90;;;;;;5416464;26;20689;-76
2024/04/12 13:59:10;;;;;;;1.90;1.10;;;17.30;99.90;;;;;;5415087;26;20217;-76
2024/04/12 14:01:58;;;;;;;2.17;1.20;;;17.50;99.90;;;;;;5416301;26;20579;-76
2024/04/12 14:04:46;;;;;;;2.50;1.13;;;17.30;99.90;;;;;;5416863;26;20228;-76
2024/04/12 14:07:34;;;;;;;3.03;1.00;;;17.40;99.90;;;;;;5438422;26;20292;-76
2024/04/12 14:10:21;;;;;;;1.50;1.00;;;17.40;99.90;;;;;;5415882;26;20252;-76
2024/04/12 14:13:17;;;;;;;2.93;0.90;;;17.50;99.90;;;;;;5416106;26;20217;-75
2024/04/12 14:16:04;;;;;;;2.20;0.93;;;18.20;99.90;;;;;;5419000;26;20212;-77
2024/04/12 14:18:54;;;;;;;2.10;1.00;;;18.80;99.90;;;;;;5416721;26;20216;-76
2024/04/12 14:21:42;;;;;;;2.63;1.17;;;19.10;99.90;;;;;;5414776;26;20259;-76
2024/04/12 14:27:36;;;;;;;1.60;1.20;;;18.90;99.90;;;;;;5416307;26;20258;-77
2024/04/12 14:30:24;;;;;;;2.10;1.00;;;18.30;99.90;;;;;;5419240;26;20315;-76
2024/04/12 14:33:12;;;;;;;2.47;1.30;;;18.20;99.90;;;;;;5414696;26;20221;-77
2024/04/12 14:36:01;;;;;;;4.60;1.20;;;18.00;99.90;;;;;;5416584;26;20331;-76
2024/04/12 14:38:48;;;;;;;2.43;1.10;;;18.00;99.90;;;;;;5415854;26;20566;-77
2024/04/12 14:41:36;;;;;;;2.10;1.20;;;17.60;99.90;;;;;;5416047;26;20217;-76
2024/04/12 14:44:24;;;;;;;1.60;1.30;;;17.50;99.90;;;;;;5417581;26;20228;-76
2024/04/12 14:47:15;;;;;;;1.10;0.90;;;17.40;99.90;;;;;;5415663;26;20217;-74
2024/04/12 14:50:07;;;;;;;3.13;1.30;;;17.40;99.90;;;;;;5412801;26;20332;-76
2024/04/12 14:52:54;;;;;;;2.27;1.30;;;17.40;99.90;;;;;;5414156;26;20221;-75
2024/04/12 14:55:43;;;;;;;2.33;1.20;;;17.30;99.90;;;;;;5413617;26;20216;-75
2024/04/12 14:58:31;;;;;;;2.13;1.33;;;17.20;99.90;;;;;;5414522;26;20224;-76
2024/04/12 15:01:18;;;;;;;4.20;1.40;;;17.10;99.90;;;;;;5418810;26;20216;-75
2024/04/12 15:53:18;;;;;;;4.03;1.70;;;16.70;99.90;;;;;;5416901;26;20664;-77
2024/04/12 16:11:17;;;;;;;4.17;2.00;;;16.50;99.90;;;;;;5433625;26;20261;-80
2024/04/12 16:14:05;;;;;;;4.53;1.90;;;16.50;99.90;;;;;;5415470;26;20567;-79
2024/04/12 16:16:53;;;;;;;4.03;2.17;;;16.40;99.90;;;;;;5414125;26;20216;-79
